Time,TemperatureF,DewpointF,PressureIn,WindDirection,WindDirectionDegrees,WindSpeedMPH,WindSpeedGustMPH,Humidity,HourlyPrecipIn,Conditions,Clouds,dailyrainin,SolarRadiationWatts/m^2,SoftwareType,DateUTC
2013-02-13 00:01:00,38.0,31.0,-100.00,SSW,206,6.0,16.0,75,0.00,,,0.00,0.000000,,2013-02-13 08:01:00,
2013-02-13 00:11:00,38.0,31.0,-100.00,SSW,206,6.0,16.0,75,0.00,,,0.00,0.000000,,2013-02-13 08:11:00,
2013-02-13 00:21:00,38.0,31.0,-100.00,SSW,206,6.0,16.0,75,0.00,,,0.00,0.000000,,2013-02-13 08:21:00,
2013-02-13 00:31:00,39.0,32.0,-100.00,South,176,9.0,19.0,76,0.00,,,0.00,0.000000,,2013-02-13 08:31:00,
2013-02-13 00:52:00,39.0,32.0,-100.00,South,176,9.0,19.0,76,0.00,,,0.00,0.000000,,2013-02-13 08:52:00,
2013-02-13 01:01:00,39.0,32.0,-100.00,South,176,9.0,19.0,76,0.00,,,0.00,0.000000,,2013-02-13 09:01:00,
2013-02-13 01:11:00,39.0,32.0,-100.00,South,176,9.0,19.0,76,0.00,,,0.00,0.000000,,2013-02-13 09:11:00,
2013-02-13 01:21:00,39.0,32.0,-100.00,South,176,9.0,19.0,76,0.00,,,0.00,0.000000,,2013-02-13 09:21:00,
2013-02-13 01:31:00,39.0,32.0,-100.00,SSW,203,7.0,15.0,75,0.00,,,0.00,0.000000,,2013-02-13 09:31:00,
2013-02-13 01:52:00,39.0,32.0,-100.00,SSW,203,7.0,15.0,75,0.00,,,0.00,0.000000,,2013-02-13 09:52:00,
2013-02-13 02:01:00,39.0,32.0,-100.00,SSW,203,7.0,15.0,75,0.00,,,0.00,0.000000,,2013-02-13 10:01:00,
2013-02-13 02:11:00,39.0,32.0,-100.00,SSW,203,7.0,15.0,75,0.00,,,0.00,0.000000,,2013-02-13 10:11:00,
2013-02-13 02:21:00,39.0,32.0,-100.00,SSW,203,7.0,15.0,75,0.00,,,0.00,0.000000,,2013-02-13 10:21:00,
2013-02-13 02:31:00,39.0,32.0,-100.00,SW,216,7.0,13.0,77,0.00,,,0.00,0.000000,,2013-02-13 10:31:00,
2013-02-13 02:52:00,39.0,32.0,-100.00,SW,216,7.0,13.0,77,0.00,,,0.00,0.000000,,2013-02-13 10:52:00,
2013-02-13 03:01:00,39.0,32.0,-100.00,SW,216,7.0,13.0,77,0.00,,,0.00,0.000000,,2013-02-13 11:01:00,
2013-02-13 03:11:00,39.0,32.0,-100.00,SW,216,7.0,13.0,77,0.00,,,0.00,0.000000,,2013-02-13 11:11:00,
2013-02-13 03:22:00,39.0,32.0,-100.00,SW,216,7.0,13.0,77,0.00,,,0.00,0.000000,,2013-02-13 11:22:00,
2013-02-13 03:31:00,39.0,32.0,-100.00,SSW,196,8.0,16.0,77,0.00,,,0.00,0.000000,,2013-02-13 11:31:00,
2013-02-13 03:52:00,39.0,32.0,-100.00,SSW,196,8.0,16.0,77,0.00,,,0.00,0.000000,,2013-02-13 11:52:00,
2013-02-13 04:02:00,39.0,32.0,-100.00,SSW,196,8.0,16.0,77,0.00,,,0.00,0.000000,,2013-02-13 12:02:00,
2013-02-13 04:11:00,39.0,32.0,-100.00,SSW,196,8.0,16.0,77,0.00,,,0.00,0.000000,,2013-02-13 12:11:00,
2013-02-13 04:21:00,39.0,32.0,-100.00,SSW,196,8.0,16.0,77,0.00,,,0.00,0.000000,,2013-02-13 12:21:00,
2013-02-13 04:31:00,39.0,33.0,-100.00,WSW,245,9.0,16.0,79,0.00,,,0.00,0.000000,,2013-02-13 12:31:00,
2013-02-13 04:52:00,39.0,33.0,-100.00,WSW,245,9.0,16.0,79,0.00,,,0.00,0.000000,,2013-02-13 12:52:00,
2013-02-13 05:02:00,39.0,33.0,-100.00,WSW,245,9.0,16.0,79,0.00,,,0.00,0.000000,,2013-02-13 13:02:00,
2013-02-13 05:11:00,39.0,33.0,-100.00,WSW,245,9.0,16.0,79,0.00,,,0.00,0.000000,,2013-02-13 13:11:00,
2013-02-13 05:21:00,39.0,33.0,-100.00,WSW,245,9.0,16.0,79,0.00,,,0.00,0.000000,,2013-02-13 13:21:00,
2013-02-13 05:31:00,39.0,31.0,-100.00,SW,229,7.0,18.0,72,0.00,,,0.00,0.000000,,2013-02-13 13:31:00,
2013-02-13 05:52:00,39.0,31.0,-100.00,SW,229,7.0,18.0,72,0.00,,,0.00,0.000000,,2013-02-13 13:52:00,
2013-02-13 06:01:00,39.0,31.0,-100.00,SW,229,7.0,18.0,72,0.00,,,0.00,0.000000,,2013-02-13 14:01:00,
2013-02-13 06:11:00,39.0,31.0,-100.00,SW,229,7.0,18.0,72,0.00,,,0.00,0.000000,,2013-02-13 14:11:00,
2013-02-13 06:21:00,39.0,31.0,-100.00,SW,229,7.0,18.0,72,0.00,,,0.00,0.000000,,2013-02-13 14:21:00,
2013-02-13 06:31:00,40.0,30.0,-100.00,West,260,6.0,16.0,67,0.00,,,0.00,0.000000,,2013-02-13 14:31:00,
2013-02-13 06:52:00,40.0,30.0,-100.00,West,260,6.0,16.0,67,0.00,,,0.00,0.000000,,2013-02-13 14:52:00,
2013-02-13 07:01:00,40.0,30.0,-100.00,West,260,6.0,16.0,67,0.00,,,0.00,0.000000,,2013-02-13 15:01:00,
2013-02-13 07:11:00,40.0,30.0,-100.00,West,260,6.0,16.0,67,0.00,,,0.00,0.000000,,2013-02-13 15:11:00,
2013-02-13 07:21:00,40.0,30.0,-100.00,West,260,6.0,16.0,67,0.00,,,0.00,0.000000,,2013-02-13 15:21:00,
2013-02-13 07:31:00,40.0,30.0,-100.00,WSW,248,6.0,16.0,68,0.00,,,0.00,1.000000,,2013-02-13 15:31:00,
2013-02-13 07:52:00,40.0,30.0,-100.00,WSW,248,6.0,16.0,68,0.00,,,0.00,1.000000,,2013-02-13 15:52:00,
2013-02-13 08:01:00,40.0,30.0,-100.00,WSW,248,6.0,16.0,68,0.00,,,0.00,1.000000,,2013-02-13 16:01:00,
2013-02-13 08:11:00,40.0,30.0,-100.00,WSW,248,6.0,16.0,68,0.00,,,0.00,1.000000,,2013-02-13 16:11:00,
2013-02-13 08:21:00,40.0,30.0,-100.00,WSW,248,6.0,16.0,68,0.00,,,0.00,1.000000,,2013-02-13 16:21:00,
2013-02-13 08:31:00,40.0,31.0,-100.00,SW,224,6.0,13.0,70,0.00,,,0.00,19.000000,,2013-02-13 16:31:00,
2013-02-13 08:52:00,40.0,31.0,-100.00,SW,224,6.0,13.0,70,0.00,,,0.00,19.000000,,2013-02-13 16:52:00,
2013-02-13 09:01:00,40.0,31.0,-100.00,SW,224,6.0,13.0,70,0.00,,,0.00,19.000000,,2013-02-13 17:01:00,
2013-02-13 09:11:00,40.0,31.0,-100.00,SW,224,6.0,13.0,70,0.00,,,0.00,19.000000,,2013-02-13 17:11:00,
2013-02-13 09:21:00,40.0,31.0,-100.00,SW,224,6.0,13.0,70,0.00,,,0.00,19.000000,,2013-02-13 17:21:00,
2013-02-13 09:31:00,41.0,32.0,-100.00,WSW,257,5.0,16.0,69,0.00,,,0.00,43.000000,,2013-02-13 17:31:00,
2013-02-13 09:52:00,41.0,32.0,-100.00,WSW,257,5.0,16.0,69,0.00,,,0.00,43.000000,,2013-02-13 17:52:00,
2013-02-13 10:01:00,41.0,32.0,-100.00,WSW,257,5.0,16.0,69,0.00,,,0.00,43.000000,,2013-02-13 18:01:00,
2013-02-13 10:11:00,41.0,32.0,-100.00,WSW,257,5.0,16.0,69,0.00,,,0.00,43.000000,,2013-02-13 18:11:00,
2013-02-13 10:22:00,41.0,32.0,-100.00,WSW,257,5.0,16.0,69,0.00,,,0.00,43.000000,,2013-02-13 18:22:00,
2013-02-13 10:31:00,41.0,31.0,-100.00,NW,318,3.0,12.0,67,0.00,,,0.00,86.000000,,2013-02-13 18:31:00,
2013-02-13 10:52:00,41.0,31.0,-100.00,NW,318,3.0,12.0,67,0.00,,,0.00,86.000000,,2013-02-13 18:52:00,
2013-02-13 11:01:00,41.0,31.0,-100.00,NW,318,3.0,12.0,67,0.00,,,0.00,86.000000,,2013-02-13 19:01:00,
2013-02-13 11:11:00,41.0,31.0,-100.00,NW,318,3.0,12.0,67,0.00,,,0.00,86.000000,,2013-02-13 19:11:00,
2013-02-13 11:21:00,41.0,31.0,-100.00,NW,318,3.0,12.0,67,0.00,,,0.00,86.000000,,2013-02-13 19:21:00,
2013-02-13 11:31:00,42.0,29.0,-100.00,WSW,244,6.0,13.0,60,0.00,,,0.00,124.000000,,2013-02-13 19:31:00,
2013-02-13 11:52:00,42.0,29.0,-100.00,WSW,244,6.0,13.0,60,0.00,,,0.00,124.000000,,2013-02-13 19:52:00,
2013-02-13 12:02:00,42.0,29.0,-100.00,WSW,244,6.0,13.0,60,0.00,,,0.00,124.000000,,2013-02-13 20:02:00,
2013-02-13 12:11:00,42.0,29.0,-100.00,WSW,244,6.0,13.0,60,0.00,,,0.00,124.000000,,2013-02-13 20:11:00,
2013-02-13 12:21:00,42.0,29.0,-100.00,WSW,244,6.0,13.0,60,0.00,,,0.00,124.000000,,2013-02-13 20:21:00,
2013-02-13 12:31:00,42.0,29.0,-100.00,WSW,246,7.0,17.0,59,0.00,,,0.00,117.000000,,2013-02-13 20:31:00,
2013-02-13 12:52:00,42.0,29.0,-100.00,WSW,246,7.0,17.0,59,0.00,,,0.00,117.000000,,2013-02-13 20:52:00,
2013-02-13 13:01:00,42.0,29.0,-100.00,WSW,246,7.0,17.0,59,0.00,,,0.00,117.000000,,2013-02-13 21:01:00,
2013-02-13 13:11:00,42.0,29.0,-100.00,WSW,246,7.0,17.0,59,0.00,,,0.00,117.000000,,2013-02-13 21:11:00,
2013-02-13 13:21:00,42.0,29.0,-100.00,WSW,246,7.0,17.0,59,0.00,,,0.00,117.000000,,2013-02-13 21:21:00,
2013-02-13 13:31:00,44.0,30.0,-100.00,SSW,206,8.0,13.0,58,0.00,,,0.00,211.000000,,2013-02-13 21:31:00,
2013-02-13 13:52:00,44.0,30.0,-100.00,SSW,206,8.0,13.0,58,0.00,,,0.00,211.000000,,2013-02-13 21:52:00,
2013-02-13 14:02:00,44.0,30.0,-100.00,SSW,206,8.0,13.0,58,0.00,,,0.00,211.000000,,2013-02-13 22:02:00,
2013-02-13 14:11:00,44.0,30.0,-100.00,SSW,206,8.0,13.0,58,0.00,,,0.00,211.000000,,2013-02-13 22:11:00,
2013-02-13 14:21:00,44.0,30.0,-100.00,SSW,206,8.0,13.0,58,0.00,,,0.00,211.000000,,2013-02-13 22:21:00,
2013-02-13 14:31:00,45.0,29.0,-100.00,SSW,210,7.0,16.0,53,0.00,,,0.00,296.000000,,2013-02-13 22:31:00,
2013-02-13 14:52:00,45.0,29.0,-100.00,SSW,210,7.0,16.0,53,0.00,,,0.00,296.000000,,2013-02-13 22:52:00,
2013-02-13 15:01:00,45.0,29.0,-100.00,SSW,210,7.0,16.0,53,0.00,,,0.00,296.000000,,2013-02-13 23:01:00,
2013-02-13 15:11:00,45.0,29.0,-100.00,SSW,210,7.0,16.0,53,0.00,,,0.00,296.000000,,2013-02-13 23:11:00,
2013-02-13 15:21:00,45.0,29.0,-100.00,SSW,210,7.0,16.0,53,0.00,,,0.00,296.000000,,2013-02-13 23:21:00,
2013-02-13 15:31:00,42.0,26.0,-100.00,WSW,251,8.0,16.0,53,0.00,,,0.00,191.000000,,2013-02-13 23:31:00,
2013-02-13 15:52:00,42.0,26.0,-100.00,WSW,251,8.0,16.0,53,0.00,,,0.00,191.000000,,2013-02-13 23:52:00,
2013-02-13 16:01:00,42.0,26.0,-100.00,WSW,251,8.0,16.0,53,0.00,,,0.00,191.000000,,2013-02-14 00:01:00,
2013-02-13 16:11:00,42.0,26.0,-100.00,WSW,251,8.0,16.0,53,0.00,,,0.00,191.000000,,2013-02-14 00:11:00,
2013-02-13 16:21:00,42.0,26.0,-100.00,WSW,251,8.0,16.0,53,0.00,,,0.00,191.000000,,2013-02-14 00:21:00,
2013-02-13 16:31:00,42.0,28.0,-100.00,WSW,247,6.0,18.0,57,0.00,,,0.00,118.000000,,2013-02-14 00:31:00,
2013-02-13 16:52:00,42.0,28.0,-100.00,WSW,247,6.0,18.0,57,0.00,,,0.00,118.000000,,2013-02-14 00:52:00,
2013-02-13 17:01:00,42.0,28.0,-100.00,WSW,247,6.0,18.0,57,0.00,,,0.00,118.000000,,2013-02-14 01:01:00,
2013-02-13 17:11:00,42.0,28.0,-100.00,WSW,247,6.0,18.0,57,0.00,,,0.00,118.000000,,2013-02-14 01:11:00,
2013-02-13 17:21:00,42.0,28.0,-100.00,WSW,247,6.0,18.0,57,0.00,,,0.00,118.000000,,2013-02-14 01:21:00,
2013-02-13 17:31:00,39.0,28.0,-100.00,SSW,199,6.0,12.0,65,0.00,,,0.00,49.000000,,2013-02-14 01:31:00,
2013-02-13 17:51:00,39.0,28.0,-100.00,SSW,199,6.0,12.0,65,0.00,,,0.00,49.000000,,2013-02-14 01:51:00,
2013-02-13 18:01:00,39.0,28.0,-100.00,SSW,199,6.0,12.0,65,0.00,,,0.00,49.000000,,2013-02-14 02:01:00,
2013-02-13 18:11:00,39.0,28.0,-100.00,SSW,199,6.0,12.0,65,0.00,,,0.00,49.000000,,2013-02-14 02:11:00,
2013-02-13 18:21:00,39.0,28.0,-100.00,SSW,199,6.0,12.0,65,0.00,,,0.00,49.000000,,2013-02-14 02:21:00,
2013-02-13 18:31:00,37.0,28.0,-100.00,SW,217,4.0,11.0,71,0.00,,,0.00,1.000000,,2013-02-14 02:31:00,
2013-02-13 19:02:00,37.0,28.0,-100.00,SW,217,4.0,11.0,71,0.00,,,0.00,1.000000,,2013-02-14 03:02:00,
2013-02-13 19:11:00,37.0,28.0,-100.00,SW,217,4.0,11.0,71,0.00,,,0.00,1.000000,,2013-02-14 03:11:00,
2013-02-13 19:21:00,37.0,28.0,-100.00,SW,217,4.0,11.0,71,0.00,,,0.00,1.000000,,2013-02-14 03:21:00,
2013-02-13 19:31:00,37.0,29.0,-100.00,SW,219,4.0,11.0,74,0.00,,,0.00,0.000000,,2013-02-14 03:31:00,
2013-02-13 19:52:00,37.0,29.0,-100.00,SW,219,4.0,11.0,74,0.00,,,0.00,0.000000,,2013-02-14 03:52:00,
2013-02-13 20:01:00,37.0,29.0,-100.00,SW,219,4.0,11.0,74,0.00,,,0.00,0.000000,,2013-02-14 04:01:00,
2013-02-13 20:11:00,37.0,29.0,-100.00,SW,219,4.0,11.0,74,0.00,,,0.00,0.000000,,2013-02-14 04:11:00,
2013-02-13 20:21:00,37.0,29.0,-100.00,SW,219,4.0,11.0,74,0.00,,,0.00,0.000000,,2013-02-14 04:21:00,
2013-02-13 20:31:00,38.0,30.0,-100.00,SSW,211,5.0,14.0,73,0.00,,,0.00,0.000000,,2013-02-14 04:31:00,
2013-02-13 20:52:00,38.0,30.0,-100.00,SSW,211,5.0,14.0,73,0.00,,,0.00,0.000000,,2013-02-14 04:52:00,
2013-02-13 21:01:00,38.0,30.0,-100.00,SSW,211,5.0,14.0,73,0.00,,,0.00,0.000000,,2013-02-14 05:01:00,
2013-02-13 21:11:00,38.0,30.0,-100.00,SSW,211,5.0,14.0,73,0.00,,,0.00,0.000000,,2013-02-14 05:11:00,
2013-02-13 21:21:00,38.0,30.0,-100.00,SSW,211,5.0,14.0,73,0.00,,,0.00,0.000000,,2013-02-14 05:21:00,
2013-02-13 21:31:00,36.0,29.0,-100.00,NNW,333,1.0,7.0,77,0.00,,,0.00,0.000000,,2013-02-14 05:31:00,
2013-02-13 21:52:00,36.0,29.0,-100.00,NNW,333,1.0,7.0,77,0.00,,,0.00,0.000000,,2013-02-14 05:52:00,
2013-02-13 22:02:00,36.0,29.0,-100.00,NNW,333,1.0,7.0,77,0.00,,,0.00,0.000000,,2013-02-14 06:02:00,
2013-02-13 22:11:00,36.0,29.0,-100.00,NNW,333,1.0,7.0,77,0.00,,,0.00,0.000000,,2013-02-14 06:11:00,
2013-02-13 22:21:00,36.0,29.0,-100.00,NNW,333,1.0,7.0,77,0.00,,,0.00,0.000000,,2013-02-14 06:21:00,
2013-02-13 22:31:00,33.0,28.0,-100.00,North,354,3.0,5.0,81,0.00,,,0.00,0.000000,,2013-02-14 06:31:00,
2013-02-13 22:52:00,33.0,28.0,-100.00,North,354,3.0,5.0,81,0.00,,,0.00,0.000000,,2013-02-14 06:52:00,
2013-02-13 23:01:00,33.0,28.0,-100.00,North,354,3.0,5.0,81,0.00,,,0.00,0.000000,,2013-02-14 07:01:00,
2013-02-13 23:11:00,33.0,28.0,-100.00,North,354,3.0,5.0,81,0.00,,,0.00,0.000000,,2013-02-14 07:11:00,
2013-02-13 23:21:00,33.0,28.0,-100.00,North,354,3.0,5.0,81,0.00,,,0.00,0.000000,,2013-02-14 07:21:00,
2013-02-13 23:31:00,33.0,29.0,-100.00,South,183,2.0,6.0,85,0.00,,,0.00,0.000000,,2013-02-14 07:31:00,
2013-02-13 23:52:00,33.0,29.0,-100.00,South,183,2.0,6.0,85,0.00,,,0.00,0.000000,,2013-02-14 07:52:00,